sensor_id;sensor_type;location;lat;lon;timestamp;P1;durP1;ratioP1;P2;durP2;ratioP2
76035;SDS011;64732;56.314;44.068;2023-05-07T00:01:27;3.80;;;1.65;;
76035;SDS011;64732;56.314;44.068;2023-05-07T00:03:48;3.58;;;1.60;;
76035;SDS011;64732;56.314;44.068;2023-05-07T00:06:11;3.55;;;1.63;;
76035;SDS011;64732;56.314;44.068;2023-05-07T00:08:33;5.38;;;1.77;;
76035;SDS011;64732;56.314;44.068;2023-05-07T00:10:54;4.18;;;1.85;;
76035;SDS011;64732;56.314;44.068;2023-05-07T00:13:15;3.33;;;1.30;;
76035;SDS011;64732;56.314;44.068;2023-05-07T00:15:36;3.72;;;1.85;;
76035;SDS011;64732;56.314;44.068;2023-05-07T00:17:57;3.95;;;1.55;;
76035;SDS011;64732;56.314;44.068;2023-05-07T00:20:19;4.70;;;2.22;;
76035;SDS011;64732;56.314;44.068;2023-05-07T00:22:42;6.22;;;2.53;;
76035;SDS011;64732;56.314;44.068;2023-05-07T00:25:04;6.63;;;2.42;;
76035;SDS011;64732;56.314;44.068;2023-05-07T00:27:27;4.68;;;2.25;;
76035;SDS011;64732;56.314;44.068;2023-05-07T00:29:48;3.70;;;1.92;;
76035;SDS011;64732;56.314;44.068;2023-05-07T00:32:09;4.63;;;2.38;;
76035;SDS011;64732;56.314;44.068;2023-05-07T00:34:30;5.88;;;3.00;;
76035;SDS011;64732;56.314;44.068;2023-05-07T00:36:51;3.08;;;1.77;;
76035;SDS011;64732;56.314;44.068;2023-05-07T00:39:15;3.33;;;1.52;;
76035;SDS011;64732;56.314;44.068;2023-05-07T00:41:36;4.30;;;1.92;;
76035;SDS011;64732;56.314;44.068;2023-05-07T00:43:57;8.80;;;2.42;;
76035;SDS011;64732;56.314;44.068;2023-05-07T00:46:18;7.00;;;1.88;;
76035;SDS011;64732;56.314;44.068;2023-05-07T00:48:41;4.55;;;2.22;;
76035;SDS011;64732;56.314;44.068;2023-05-07T00:51:02;5.00;;;2.60;;
76035;SDS011;64732;56.314;44.068;2023-05-07T00:53:23;5.53;;;2.08;;
76035;SDS011;64732;56.314;44.068;2023-05-07T00:55:47;4.10;;;2.20;;
76035;SDS011;64732;56.314;44.068;2023-05-07T00:58:08;6.65;;;2.55;;
76035;SDS011;64732;56.314;44.068;2023-05-07T01:00:29;2.88;;;1.55;;
76035;SDS011;64732;56.314;44.068;2023-05-07T01:02:50;5.25;;;2.13;;
76035;SDS011;64732;56.314;44.068;2023-05-07T01:05:12;5.55;;;1.90;;
76035;SDS011;64732;56.314;44.068;2023-05-07T01:07:34;5.43;;;2.00;;
76035;SDS011;64732;56.314;44.068;2023-05-07T01:09:56;5.40;;;2.35;;
76035;SDS011;64732;56.314;44.068;2023-05-07T01:12:20;3.60;;;1.60;;
76035;SDS011;64732;56.314;44.068;2023-05-07T01:14:41;4.68;;;2.00;;
76035;SDS011;64732;56.314;44.068;2023-05-07T01:17:02;4.97;;;1.90;;
76035;SDS011;64732;56.314;44.068;2023-05-07T01:19:23;3.13;;;1.48;;
76035;SDS011;64732;56.314;44.068;2023-05-07T01:21:45;4.25;;;2.15;;
76035;SDS011;64732;56.314;44.068;2023-05-07T01:24:10;7.13;;;2.45;;
76035;SDS011;64732;56.314;44.068;2023-05-07T01:26:31;4.88;;;2.25;;
76035;SDS011;64732;56.314;44.068;2023-05-07T01:28:52;4.85;;;2.28;;
76035;SDS011;64732;56.314;44.068;2023-05-07T01:31:13;5.65;;;2.45;;
76035;SDS011;64732;56.314;44.068;2023-05-07T01:33:34;5.70;;;2.95;;
76035;SDS011;64732;56.314;44.068;2023-05-07T01:35:57;5.13;;;1.95;;
76035;SDS011;64732;56.314;44.068;2023-05-07T01:38:20;5.53;;;2.67;;
76035;SDS011;64732;56.314;44.068;2023-05-07T01:40:45;5.28;;;2.42;;
76035;SDS011;64732;56.314;44.068;2023-05-07T01:43:06;6.95;;;2.47;;
76035;SDS011;64732;56.314;44.068;2023-05-07T01:45:27;5.65;;;2.38;;
76035;SDS011;64732;56.314;44.068;2023-05-07T01:47:48;6.47;;;2.08;;
76035;SDS011;64732;56.314;44.068;2023-05-07T01:50:10;5.22;;;0.95;;
76035;SDS011;64732;56.314;44.068;2023-05-07T01:52:31;6.28;;;2.63;;
76035;SDS011;64732;56.314;44.068;2023-05-07T01:54:52;4.55;;;1.45;;
76035;SDS011;64732;56.314;44.068;2023-05-07T01:57:15;1.90;;;0.93;;
76035;SDS011;64732;56.314;44.068;2023-05-07T01:59:36;12.35;;;2.17;;
76035;SDS011;64732;56.314;44.068;2023-05-07T02:01:57;6.45;;;2.22;;
76035;SDS011;64732;56.314;44.068;2023-05-07T02:04:18;4.25;;;1.65;;
76035;SDS011;64732;56.314;44.068;2023-05-07T02:06:39;4.63;;;2.20;;
76035;SDS011;64732;56.314;44.068;2023-05-07T02:09:00;5.20;;;2.33;;
76035;SDS011;64732;56.314;44.068;2023-05-07T02:11:22;4.03;;;1.95;;
76035;SDS011;64732;56.314;44.068;2023-05-07T02:13:45;7.90;;;1.90;;
76035;SDS011;64732;56.314;44.068;2023-05-07T02:16:08;5.68;;;1.70;;
76035;SDS011;64732;56.314;44.068;2023-05-07T02:18:29;4.07;;;1.95;;
76035;SDS011;64732;56.314;44.068;2023-05-07T02:20:50;3.83;;;1.65;;
76035;SDS011;64732;56.314;44.068;2023-05-07T02:23:12;3.55;;;1.45;;
76035;SDS011;64732;56.314;44.068;2023-05-07T02:25:33;6.28;;;2.38;;
76035;SDS011;64732;56.314;44.068;2023-05-07T02:27:54;5.40;;;2.42;;
76035;SDS011;64732;56.314;44.068;2023-05-07T02:30:18;4.63;;;2.15;;
76035;SDS011;64732;56.314;44.068;2023-05-07T02:32:39;4.40;;;1.55;;
76035;SDS011;64732;56.314;44.068;2023-05-07T02:35:00;4.97;;;2.17;;
76035;SDS011;64732;56.314;44.068;2023-05-07T02:37:24;2.70;;;1.42;;
76035;SDS011;64732;56.314;44.068;2023-05-07T02:39:45;4.65;;;1.70;;
76035;SDS011;64732;56.314;44.068;2023-05-07T02:42:06;6.88;;;2.20;;
76035;SDS011;64732;56.314;44.068;2023-05-07T02:44:26;3.20;;;1.88;;
76035;SDS011;64732;56.314;44.068;2023-05-07T02:46:51;2.97;;;1.33;;
76035;SDS011;64732;56.314;44.068;2023-05-07T02:49:12;2.15;;;1.23;;
76035;SDS011;64732;56.314;44.068;2023-05-07T02:51:33;4.07;;;2.22;;
76035;SDS011;64732;56.314;44.068;2023-05-07T02:53:56;4.18;;;2.10;;
76035;SDS011;64732;56.314;44.068;2023-05-07T02:56:17;5.30;;;2.30;;
76035;SDS011;64732;56.314;44.068;2023-05-07T02:58:39;4.88;;;2.40;;
76035;SDS011;64732;56.314;44.068;2023-05-07T03:01:00;4.93;;;1.38;;
76035;SDS011;64732;56.314;44.068;2023-05-07T03:03:24;2.80;;;1.42;;
76035;SDS011;64732;56.314;44.068;2023-05-07T03:05:45;2.95;;;1.52;;
76035;SDS011;64732;56.314;44.068;2023-05-07T03:08:06;2.97;;;1.55;;
76035;SDS011;64732;56.314;44.068;2023-05-07T03:10:28;4.85;;;2.00;;
76035;SDS011;64732;56.314;44.068;2023-05-07T03:12:49;3.78;;;1.92;;
76035;SDS011;64732;56.314;44.068;2023-05-07T03:15:10;3.90;;;1.83;;
76035;SDS011;64732;56.314;44.068;2023-05-07T03:17:31;2.70;;;1.48;;
76035;SDS011;64732;56.314;44.068;2023-05-07T03:19:55;2.72;;;1.27;;
76035;SDS011;64732;56.314;44.068;2023-05-07T03:22:16;6.65;;;1.42;;
76035;SDS011;64732;56.314;44.068;2023-05-07T03:24:37;4.63;;;1.67;;
76035;SDS011;64732;56.314;44.068;2023-05-07T03:26:58;4.07;;;2.05;;
76035;SDS011;64732;56.314;44.068;2023-05-07T03:29:19;2.40;;;1.65;;
76035;SDS011;64732;56.314;44.068;2023-05-07T03:31:39;4.13;;;2.08;;
76035;SDS011;64732;56.314;44.068;2023-05-07T03:34:00;3.72;;;2.17;;
76035;SDS011;64732;56.314;44.068;2023-05-07T03:36:24;6.88;;;2.33;;
76035;SDS011;64732;56.314;44.068;2023-05-07T03:38:45;3.78;;;2.00;;
76035;SDS011;64732;56.314;44.068;2023-05-07T03:41:06;6.95;;;1.67;;
76035;SDS011;64732;56.314;44.068;2023-05-07T03:43:27;3.55;;;1.90;;
76035;SDS011;64732;56.314;44.068;2023-05-07T03:45:48;3.22;;;1.70;;
76035;SDS011;64732;56.314;44.068;2023-05-07T03:48:09;5.75;;;2.10;;
76035;SDS011;64732;56.314;44.068;2023-05-07T03:50:30;4.70;;;2.88;;
76035;SDS011;64732;56.314;44.068;2023-05-07T03:52:54;3.60;;;1.73;;
76035;SDS011;64732;56.314;44.068;2023-05-07T03:55:15;2.55;;;1.30;;
76035;SDS011;64732;56.314;44.068;2023-05-07T03:57:36;3.90;;;1.90;;
76035;SDS011;64732;56.314;44.068;2023-05-07T03:59:57;5.30;;;2.28;;
76035;SDS011;64732;56.314;44.068;2023-05-07T04:02:18;1.88;;;1.17;;
76035;SDS011;64732;56.314;44.068;2023-05-07T04:04:39;4.35;;;1.63;;
76035;SDS011;64732;56.314;44.068;2023-05-07T04:07:00;3.83;;;1.55;;
76035;SDS011;64732;56.314;44.068;2023-05-07T04:09:24;2.38;;;1.50;;
76035;SDS011;64732;56.314;44.068;2023-05-07T04:11:45;2.67;;;1.17;;
76035;SDS011;64732;56.314;44.068;2023-05-07T04:14:06;2.17;;;1.05;;
76035;SDS011;64732;56.314;44.068;2023-05-07T04:16:27;3.35;;;1.35;;
76035;SDS011;64732;56.314;44.068;2023-05-07T04:18:48;3.90;;;1.60;;
76035;SDS011;64732;56.314;44.068;2023-05-07T04:21:13;5.07;;;1.98;;
76035;SDS011;64732;56.314;44.068;2023-05-07T04:23:35;5.90;;;2.15;;
76035;SDS011;64732;56.314;44.068;2023-05-07T04:25:58;3.53;;;2.30;;
76035;SDS011;64732;56.314;44.068;2023-05-07T04:28:19;4.40;;;1.95;;
76035;SDS011;64732;56.314;44.068;2023-05-07T04:30:40;5.32;;;2.20;;
76035;SDS011;64732;56.314;44.068;2023-05-07T04:33:01;3.42;;;1.90;;
76035;SDS011;64732;56.314;44.068;2023-05-07T04:35:22;6.43;;;1.70;;
76035;SDS011;64732;56.314;44.068;2023-05-07T04:37:44;2.92;;;1.40;;
76035;SDS011;64732;56.314;44.068;2023-05-07T04:40:05;3.58;;;1.23;;
76035;SDS011;64732;56.314;44.068;2023-05-07T04:42:30;3.08;;;1.67;;
76035;SDS011;64732;56.314;44.068;2023-05-07T04:44:54;4.68;;;2.08;;
76035;SDS011;64732;56.314;44.068;2023-05-07T04:47:15;2.45;;;1.13;;
76035;SDS011;64732;56.314;44.068;2023-05-07T04:49:37;2.95;;;1.95;;
76035;SDS011;64732;56.314;44.068;2023-05-07T04:51:58;3.97;;;2.17;;
76035;SDS011;64732;56.314;44.068;2023-05-07T04:54:19;3.47;;;1.90;;
76035;SDS011;64732;56.314;44.068;2023-05-07T04:56:40;5.22;;;1.85;;
76035;SDS011;64732;56.314;44.068;2023-05-07T04:59:04;3.55;;;1.60;;
76035;SDS011;64732;56.314;44.068;2023-05-07T05:01:25;3.15;;;1.35;;
76035;SDS011;64732;56.314;44.068;2023-05-07T05:03:48;3.30;;;1.42;;
76035;SDS011;64732;56.314;44.068;2023-05-07T05:06:10;2.92;;;1.08;;
76035;SDS011;64732;56.314;44.068;2023-05-07T05:08:32;3.05;;;1.42;;
76035;SDS011;64732;56.314;44.068;2023-05-07T05:10:53;2.47;;;1.45;;
76035;SDS011;64732;56.314;44.068;2023-05-07T05:13:14;2.58;;;1.40;;
76035;SDS011;64732;56.314;44.068;2023-05-07T05:15:39;3.70;;;1.15;;
76035;SDS011;64732;56.314;44.068;2023-05-07T05:18:00;4.00;;;1.75;;
76035;SDS011;64732;56.314;44.068;2023-05-07T05:20:21;3.72;;;1.83;;
76035;SDS011;64732;56.314;44.068;2023-05-07T05:22:42;4.95;;;1.90;;
76035;SDS011;64732;56.314;44.068;2023-05-07T05:25:04;10.80;;;1.98;;
76035;SDS011;64732;56.314;44.068;2023-05-07T05:27:25;3.17;;;1.25;;
76035;SDS011;64732;56.314;44.068;2023-05-07T05:29:46;3.38;;;1.55;;
76035;SDS011;64732;56.314;44.068;2023-05-07T05:32:10;3.55;;;1.30;;
76035;SDS011;64732;56.314;44.068;2023-05-07T05:34:31;2.58;;;1.00;;
76035;SDS011;64732;56.314;44.068;2023-05-07T05:36:52;2.38;;;0.98;;
76035;SDS011;64732;56.314;44.068;2023-05-07T05:39:13;3.42;;;1.45;;
76035;SDS011;64732;56.314;44.068;2023-05-07T05:41:34;3.10;;;1.17;;
76035;SDS011;64732;56.314;44.068;2023-05-07T05:43:55;4.13;;;1.75;;
76035;SDS011;64732;56.314;44.068;2023-05-07T05:46:16;5.43;;;1.65;;
76035;SDS011;64732;56.314;44.068;2023-05-07T05:48:42;2.03;;;1.20;;
76035;SDS011;64732;56.314;44.068;2023-05-07T05:51:03;2.88;;;0.98;;
76035;SDS011;64732;56.314;44.068;2023-05-07T05:53:24;2.58;;;1.33;;
76035;SDS011;64732;56.314;44.068;2023-05-07T05:55:45;2.65;;;1.35;;
76035;SDS011;64732;56.314;44.068;2023-05-07T05:58:06;4.45;;;1.63;;
76035;SDS011;64732;56.314;44.068;2023-05-07T06:00:27;3.55;;;1.17;;
76035;SDS011;64732;56.314;44.068;2023-05-07T06:02:48;5.07;;;1.05;;
76035;SDS011;64732;56.314;44.068;2023-05-07T06:05:12;2.95;;;1.38;;
76035;SDS011;64732;56.314;44.068;2023-05-07T06:07:33;4.63;;;2.15;;
76035;SDS011;64732;56.314;44.068;2023-05-07T06:09:54;2.67;;;1.23;;
76035;SDS011;64732;56.314;44.068;2023-05-07T06:12:15;1.38;;;0.70;;
76035;SDS011;64732;56.314;44.068;2023-05-07T06:14:36;8.60;;;1.30;;
76035;SDS011;64732;56.314;44.068;2023-05-07T06:16:57;2.72;;;0.90;;
76035;SDS011;64732;56.314;44.068;2023-05-07T06:19:18;2.70;;;1.40;;
76035;SDS011;64732;56.314;44.068;2023-05-07T06:21:42;2.22;;;1.00;;
76035;SDS011;64732;56.314;44.068;2023-05-07T06:24:03;2.33;;;1.20;;
76035;SDS011;64732;56.314;44.068;2023-05-07T06:26:26;1.63;;;0.98;;
76035;SDS011;64732;56.314;44.068;2023-05-07T06:28:47;2.35;;;1.15;;
76035;SDS011;64732;56.314;44.068;2023-05-07T06:31:12;2.08;;;0.95;;
76035;SDS011;64732;56.314;44.068;2023-05-07T06:33:34;2.78;;;0.73;;
76035;SDS011;64732;56.314;44.068;2023-05-07T06:35:56;2.58;;;1.17;;
76035;SDS011;64732;56.314;44.068;2023-05-07T06:38:20;2.53;;;1.08;;
76035;SDS011;64732;56.314;44.068;2023-05-07T06:40:41;1.35;;;0.80;;
76035;SDS011;64732;56.314;44.068;2023-05-07T06:43:03;3.83;;;0.57;;
76035;SDS011;64732;56.314;44.068;2023-05-07T06:45:24;1.88;;;1.23;;
76035;SDS011;64732;56.314;44.068;2023-05-07T06:47:45;1.58;;;0.70;;
76035;SDS011;64732;56.314;44.068;2023-05-07T06:50:07;1.95;;;1.08;;
76035;SDS011;64732;56.314;44.068;2023-05-07T06:52:28;7.18;;;3.00;;
76035;SDS011;64732;56.314;44.068;2023-05-07T06:54:52;4.13;;;1.30;;
76035;SDS011;64732;56.314;44.068;2023-05-07T06:57:13;2.53;;;0.90;;
76035;SDS011;64732;56.314;44.068;2023-05-07T06:59:34;2.25;;;1.27;;
76035;SDS011;64732;56.314;44.068;2023-05-07T07:01:55;2.42;;;1.27;;
76035;SDS011;64732;56.314;44.068;2023-05-07T07:04:16;1.60;;;0.80;;
76035;SDS011;64732;56.314;44.068;2023-05-07T07:06:37;8.85;;;0.98;;
76035;SDS011;64732;56.314;44.068;2023-05-07T07:08:58;1.73;;;0.80;;
76035;SDS011;64732;56.314;44.068;2023-05-07T07:11:22;1.17;;;0.70;;
76035;SDS011;64732;56.314;44.068;2023-05-07T07:13:43;2.05;;;0.80;;
76035;SDS011;64732;56.314;44.068;2023-05-07T07:16:04;2.15;;;0.88;;
76035;SDS011;64732;56.314;44.068;2023-05-07T07:18:25;1.73;;;0.80;;
76035;SDS011;64732;56.314;44.068;2023-05-07T07:20:46;1.42;;;0.65;;
76035;SDS011;64732;56.314;44.068;2023-05-07T07:23:07;3.25;;;1.05;;
76035;SDS011;64732;56.314;44.068;2023-05-07T07:25:28;3.10;;;0.80;;
76035;SDS011;64732;56.314;44.068;2023-05-07T07:27:52;0.70;;;0.43;;
76035;SDS011;64732;56.314;44.068;2023-05-07T07:30:13;2.55;;;0.50;;
76035;SDS011;64732;56.314;44.068;2023-05-07T07:32:34;3.08;;;0.80;;
76035;SDS011;64732;56.314;44.068;2023-05-07T07:34:55;1.80;;;0.57;;
76035;SDS011;64732;56.314;44.068;2023-05-07T07:37:16;2.22;;;0.82;;
76035;SDS011;64732;56.314;44.068;2023-05-07T07:39:37;1.08;;;0.63;;
76035;SDS011;64732;56.314;44.068;2023-05-07T07:41:58;3.72;;;0.95;;
76035;SDS011;64732;56.314;44.068;2023-05-07T07:44:21;2.15;;;0.90;;
76035;SDS011;64732;56.314;44.068;2023-05-07T07:46:42;1.60;;;0.52;;
76035;SDS011;64732;56.314;44.068;2023-05-07T07:49:03;1.63;;;0.65;;
76035;SDS011;64732;56.314;44.068;2023-05-07T07:51:24;1.80;;;0.57;;
76035;SDS011;64732;56.314;44.068;2023-05-07T07:53:45;4.38;;;0.90;;
76035;SDS011;64732;56.314;44.068;2023-05-07T07:56:07;1.40;;;0.70;;
76035;SDS011;64732;56.314;44.068;2023-05-07T07:58:28;1.45;;;0.50;;
76035;SDS011;64732;56.314;44.068;2023-05-07T08:00:51;2.33;;;0.70;;
76035;SDS011;64732;56.314;44.068;2023-05-07T08:03:13;1.73;;;0.63;;
76035;SDS011;64732;56.314;44.068;2023-05-07T08:05:34;1.10;;;0.60;;
76035;SDS011;64732;56.314;44.068;2023-05-07T08:07:55;1.60;;;0.60;;
76035;SDS011;64732;56.314;44.068;2023-05-07T08:10:16;1.00;;;0.43;;
76035;SDS011;64732;56.314;44.068;2023-05-07T08:12:37;1.58;;;0.40;;
76035;SDS011;64732;56.314;44.068;2023-05-07T08:14:58;0.75;;;0.40;;
76035;SDS011;64732;56.314;44.068;2023-05-07T08:17:22;1.13;;;0.50;;
76035;SDS011;64732;56.314;44.068;2023-05-07T08:19:44;6.57;;;0.80;;
76035;SDS011;64732;56.314;44.068;2023-05-07T08:22:05;2.28;;;0.63;;
76035;SDS011;64732;56.314;44.068;2023-05-07T08:24:26;1.42;;;0.50;;
76035;SDS011;64732;56.314;44.068;2023-05-07T08:26:47;2.35;;;0.47;;
76035;SDS011;64732;56.314;44.068;2023-05-07T08:29:08;1.80;;;0.60;;
76035;SDS011;64732;56.314;44.068;2023-05-07T08:31:29;1.58;;;0.50;;
76035;SDS011;64732;56.314;44.068;2023-05-07T08:33:57;1.58;;;0.50;;
76035;SDS011;64732;56.314;44.068;2023-05-07T08:36:18;4.78;;;0.73;;
76035;SDS011;64732;56.314;44.068;2023-05-07T08:38:39;0.85;;;0.47;;
76035;SDS011;64732;56.314;44.068;2023-05-07T08:41:00;0.93;;;0.30;;
76035;SDS011;64732;56.314;44.068;2023-05-07T08:43:21;2.22;;;0.60;;
76035;SDS011;64732;56.314;44.068;2023-05-07T08:45:45;1.08;;;0.47;;
76035;SDS011;64732;56.314;44.068;2023-05-07T08:48:14;1.40;;;0.60;;
76035;SDS011;64732;56.314;44.068;2023-05-07T08:50:39;1.33;;;0.52;;
76035;SDS011;64732;56.314;44.068;2023-05-07T08:53:00;1.45;;;0.57;;
76035;SDS011;64732;56.314;44.068;2023-05-07T08:55:21;1.08;;;0.50;;
76035;SDS011;64732;56.314;44.068;2023-05-07T08:57:42;1.25;;;0.50;;
76035;SDS011;64732;56.314;44.068;2023-05-07T09:00:04;1.10;;;0.60;;
76035;SDS011;64732;56.314;44.068;2023-05-07T09:02:26;0.82;;;0.40;;
76035;SDS011;64732;56.314;44.068;2023-05-07T09:04:47;0.77;;;0.50;;
76035;SDS011;64732;56.314;44.068;2023-05-07T09:07:11;3.88;;;0.68;;
76035;SDS011;64732;56.314;44.068;2023-05-07T09:09:32;5.13;;;1.30;;
76035;SDS011;64732;56.314;44.068;2023-05-07T09:11:56;1.65;;;0.60;;
76035;SDS011;64732;56.314;44.068;2023-05-07T09:14:17;2.05;;;0.70;;
76035;SDS011;64732;56.314;44.068;2023-05-07T09:16:42;3.42;;;0.90;;
76035;SDS011;64732;56.314;44.068;2023-05-07T09:19:03;5.72;;;1.27;;
76035;SDS011;64732;56.314;44.068;2023-05-07T09:21:24;1.95;;;0.90;;
76035;SDS011;64732;56.314;44.068;2023-05-07T09:23:47;2.60;;;0.52;;
76035;SDS011;64732;56.314;44.068;2023-05-07T09:26:08;0.70;;;0.30;;
76035;SDS011;64732;56.314;44.068;2023-05-07T09:28:29;1.38;;;0.45;;
76035;SDS011;64732;56.314;44.068;2023-05-07T09:30:50;1.58;;;0.50;;
76035;SDS011;64732;56.314;44.068;2023-05-07T09:33:11;1.33;;;0.60;;
76035;SDS011;64732;56.314;44.068;2023-05-07T09:35:32;1.58;;;0.63;;
76035;SDS011;64732;56.314;44.068;2023-05-07T09:37:53;1.42;;;0.65;;
76035;SDS011;64732;56.314;44.068;2023-05-07T09:40:25;1.38;;;0.60;;
76035;SDS011;64732;56.314;44.068;2023-05-07T09:42:46;0.98;;;0.47;;
76035;SDS011;64732;56.314;44.068;2023-05-07T09:45:08;3.45;;;1.35;;
76035;SDS011;64732;56.314;44.068;2023-05-07T09:47:29;1.10;;;0.50;;
76035;SDS011;64732;56.314;44.068;2023-05-07T09:49:55;3.70;;;0.47;;
76035;SDS011;64732;56.314;44.068;2023-05-07T09:52:17;3.63;;;0.60;;
76035;SDS011;64732;56.314;44.068;2023-05-07T09:54:38;3.67;;;0.88;;
76035;SDS011;64732;56.314;44.068;2023-05-07T09:57:03;3.08;;;0.77;;
76035;SDS011;64732;56.314;44.068;2023-05-07T09:59:25;3.83;;;1.27;;
76035;SDS011;64732;56.314;44.068;2023-05-07T10:01:46;2.67;;;1.00;;
76035;SDS011;64732;56.314;44.068;2023-05-07T10:04:07;2.63;;;1.10;;
76035;SDS011;64732;56.314;44.068;2023-05-07T10:06:28;1.38;;;0.70;;
76035;SDS011;64732;56.314;44.068;2023-05-07T10:08:49;4.10;;;1.00;;
76035;SDS011;64732;56.314;44.068;2023-05-07T10:11:10;2.95;;;1.00;;
76035;SDS011;64732;56.314;44.068;2023-05-07T10:13:35;1.00;;;0.60;;
76035;SDS011;64732;56.314;44.068;2023-05-07T10:15:56;1.25;;;0.57;;
76035;SDS011;64732;56.314;44.068;2023-05-07T10:18:18;1.20;;;0.50;;
76035;SDS011;64732;56.314;44.068;2023-05-07T10:20:40;1.42;;;0.90;;
76035;SDS011;64732;56.314;44.068;2023-05-07T10:23:04;2.25;;;0.60;;
76035;SDS011;64732;56.314;44.068;2023-05-07T10:25:26;2.17;;;1.10;;
76035;SDS011;64732;56.314;44.068;2023-05-07T10:27:49;1.15;;;0.60;;
76035;SDS011;64732;56.314;44.068;2023-05-07T10:30:15;1.67;;;0.82;;
76035;SDS011;64732;56.314;44.068;2023-05-07T10:32:45;1.70;;;1.00;;
76035;SDS011;64732;56.314;44.068;2023-05-07T10:35:10;8.13;;;1.20;;
76035;SDS011;64732;56.314;44.068;2023-05-07T10:37:32;1.70;;;0.95;;
76035;SDS011;64732;56.314;44.068;2023-05-07T10:39:53;2.38;;;1.02;;
76035;SDS011;64732;56.314;44.068;2023-05-07T10:42:14;1.60;;;0.70;;
76035;SDS011;64732;56.314;44.068;2023-05-07T10:44:35;1.90;;;1.00;;
76035;SDS011;64732;56.314;44.068;2023-05-07T10:47:09;4.40;;;1.58;;
76035;SDS011;64732;56.314;44.068;2023-05-07T10:49:31;3.55;;;0.80;;
76035;SDS011;64732;56.314;44.068;2023-05-07T10:54:34;4.40;;;1.00;;
76035;SDS011;64732;56.314;44.068;2023-05-07T10:56:55;1.50;;;0.85;;
76035;SDS011;64732;56.314;44.068;2023-05-07T10:59:32;3.55;;;1.00;;
76035;SDS011;64732;56.314;44.068;2023-05-07T11:01:55;1.00;;;0.43;;
76035;SDS011;64732;56.314;44.068;2023-05-07T11:04:19;3.00;;;1.00;;
76035;SDS011;64732;56.314;44.068;2023-05-07T11:06:40;6.65;;;1.80;;
76035;SDS011;64732;56.314;44.068;2023-05-07T11:09:01;5.45;;;1.20;;
76035;SDS011;64732;56.314;44.068;2023-05-07T11:14:07;2.08;;;0.95;;
76035;SDS011;64732;56.314;44.068;2023-05-07T11:16:28;2.35;;;0.70;;
76035;SDS011;64732;56.314;44.068;2023-05-07T11:18:49;3.67;;;1.20;;
76035;SDS011;64732;56.314;44.068;2023-05-07T11:21:14;2.10;;;0.98;;
76035;SDS011;64732;56.314;44.068;2023-05-07T11:23:55;1.77;;;0.85;;
76035;SDS011;64732;56.314;44.068;2023-05-07T11:26:19;3.40;;;1.20;;
76035;SDS011;64732;56.314;44.068;2023-05-07T11:28:41;3.22;;;0.75;;
76035;SDS011;64732;56.314;44.068;2023-05-07T11:31:02;2.88;;;1.02;;
76035;SDS011;64732;56.314;44.068;2023-05-07T11:33:24;2.95;;;1.10;;
76035;SDS011;64732;56.314;44.068;2023-05-07T11:35:45;4.82;;;1.33;;
76035;SDS011;64732;56.314;44.068;2023-05-07T11:38:09;2.17;;;1.20;;
76035;SDS011;64732;56.314;44.068;2023-05-07T11:40:33;2.83;;;1.02;;
76035;SDS011;64732;56.314;44.068;2023-05-07T11:42:54;2.38;;;1.25;;
76035;SDS011;64732;56.314;44.068;2023-05-07T11:45:19;1.27;;;0.60;;
76035;SDS011;64732;56.314;44.068;2023-05-07T11:47:43;4.53;;;1.10;;
76035;SDS011;64732;56.314;44.068;2023-05-07T11:50:05;1.77;;;0.90;;
76035;SDS011;64732;56.314;44.068;2023-05-07T11:52:28;3.05;;;1.73;;
76035;SDS011;64732;56.314;44.068;2023-05-07T11:54:53;3.63;;;0.98;;
76035;SDS011;64732;56.314;44.068;2023-05-07T11:57:14;4.78;;;1.50;;
76035;SDS011;64732;56.314;44.068;2023-05-07T11:59:38;2.22;;;0.70;;
76035;SDS011;64732;56.314;44.068;2023-05-07T12:01:59;3.65;;;0.68;;
76035;SDS011;64732;56.314;44.068;2023-05-07T12:04:20;2.78;;;0.93;;
76035;SDS011;64732;56.314;44.068;2023-05-07T12:06:42;2.83;;;1.13;;
76035;SDS011;64732;56.314;44.068;2023-05-07T12:09:03;2.75;;;1.27;;
76035;SDS011;64732;56.314;44.068;2023-05-07T12:11:27;2.65;;;0.88;;
76035;SDS011;64732;56.314;44.068;2023-05-07T12:13:48;2.03;;;1.02;;
76035;SDS011;64732;56.314;44.068;2023-05-07T12:16:09;3.55;;;1.38;;
76035;SDS011;64732;56.314;44.068;2023-05-07T12:18:30;3.65;;;1.13;;
76035;SDS011;64732;56.314;44.068;2023-05-07T12:20:51;1.20;;;0.63;;
76035;SDS011;64732;56.314;44.068;2023-05-07T12:23:12;2.55;;;0.80;;
76035;SDS011;64732;56.314;44.068;2023-05-07T12:25:34;1.85;;;0.90;;
76035;SDS011;64732;56.314;44.068;2023-05-07T12:27:58;2.03;;;0.98;;
76035;SDS011;64732;56.314;44.068;2023-05-07T12:30:22;1.83;;;0.70;;
76035;SDS011;64732;56.314;44.068;2023-05-07T12:32:43;2.95;;;1.00;;
76035;SDS011;64732;56.314;44.068;2023-05-07T12:35:06;1.20;;;0.60;;
76035;SDS011;64732;56.314;44.068;2023-05-07T12:37:27;3.65;;;1.20;;
76035;SDS011;64732;56.314;44.068;2023-05-07T12:39:49;1.67;;;1.00;;
76035;SDS011;64732;56.314;44.068;2023-05-07T12:42:25;1.75;;;0.98;;
76035;SDS011;64732;56.314;44.068;2023-05-07T12:44:48;0.75;;;0.40;;
76035;SDS011;64732;56.314;44.068;2023-05-07T12:47:09;6.05;;;1.20;;
76035;SDS011;64732;56.314;44.068;2023-05-07T12:49:30;3.67;;;1.30;;
76035;SDS011;64732;56.314;44.068;2023-05-07T12:51:51;1.83;;;1.13;;
76035;SDS011;64732;56.314;44.068;2023-05-07T12:54:12;3.33;;;1.35;;
76035;SDS011;64732;56.314;44.068;2023-05-07T12:56:35;3.00;;;1.27;;
76035;SDS011;64732;56.314;44.068;2023-05-07T12:58:57;2.60;;;0.75;;
76035;SDS011;64732;56.314;44.068;2023-05-07T13:01:20;3.55;;;1.33;;
76035;SDS011;64732;56.314;44.068;2023-05-07T13:03:41;2.53;;;1.17;;
76035;SDS011;64732;56.314;44.068;2023-05-07T13:06:09;2.13;;;0.88;;
76035;SDS011;64732;56.314;44.068;2023-05-07T13:08:30;1.63;;;0.40;;
76035;SDS011;64732;56.314;44.068;2023-05-07T13:10:52;3.25;;;1.08;;
76035;SDS011;64732;56.314;44.068;2023-05-07T13:13:15;3.53;;;0.93;;
76035;SDS011;64732;56.314;44.068;2023-05-07T13:15:36;1.13;;;0.70;;
76035;SDS011;64732;56.314;44.068;2023-05-07T13:18:00;4.85;;;1.35;;
76035;SDS011;64732;56.314;44.068;2023-05-07T13:20:21;1.42;;;0.60;;
76035;SDS011;64732;56.314;44.068;2023-05-07T13:22:42;2.13;;;0.80;;
76035;SDS011;64732;56.314;44.068;2023-05-07T13:25:03;5.90;;;1.33;;
76035;SDS011;64732;56.314;44.068;2023-05-07T13:27:25;2.50;;;0.80;;
76035;SDS011;64732;56.314;44.068;2023-05-07T13:29:46;2.28;;;0.95;;
76035;SDS011;64732;56.314;44.068;2023-05-07T13:32:07;3.40;;;1.63;;
76035;SDS011;64732;56.314;44.068;2023-05-07T13:34:35;3.25;;;1.13;;
76035;SDS011;64732;56.314;44.068;2023-05-07T13:36:56;4.45;;;1.23;;
76035;SDS011;64732;56.314;44.068;2023-05-07T13:39:17;1.90;;;0.88;;
76035;SDS011;64732;56.314;44.068;2023-05-07T13:41:38;1.42;;;0.47;;
76035;SDS011;64732;56.314;44.068;2023-05-07T13:43:59;2.38;;;1.00;;
76035;SDS011;64732;56.314;44.068;2023-05-07T13:46:20;1.73;;;0.90;;
76035;SDS011;64732;56.314;44.068;2023-05-07T13:48:41;1.85;;;0.95;;
76035;SDS011;64732;56.314;44.068;2023-05-07T13:51:05;1.90;;;0.77;;
76035;SDS011;64732;56.314;44.068;2023-05-07T13:53:26;5.55;;;1.38;;
76035;SDS011;64732;56.314;44.068;2023-05-07T13:55:47;2.47;;;1.17;;
76035;SDS011;64732;56.314;44.068;2023-05-07T13:58:08;1.42;;;0.73;;
76035;SDS011;64732;56.314;44.068;2023-05-07T14:00:29;4.93;;;1.10;;
76035;SDS011;64732;56.314;44.068;2023-05-07T14:02:50;5.13;;;1.20;;
76035;SDS011;64732;56.314;44.068;2023-05-07T14:05:11;1.40;;;0.90;;
76035;SDS011;64732;56.314;44.068;2023-05-07T14:07:35;2.45;;;0.63;;